Time;durP1;ratioP1;P1;durP2;ratioP2;P2;SDS_P1;SDS_P2;PMS_P1;PMS_P2;Temp;Humidity;BMP_temperature;BMP_pressure;BME280_temperature;BME280_humidity;BME280_pressure;Samples;Min_cycle;Max_cycle;Signal;HPM_P1;HPM_P2
2023/04/17 00:01:34;;;;;;;7.50;4.35;;;13.10;57.80;;;;;;6254982;28;20041;-68
2023/04/17 00:04:37;;;;;;;9.77;4.32;;;13.10;57.80;;;;;;6253057;28;20029;-68
2023/04/17 00:07:37;;;;;;;9.45;4.13;;;13.10;57.80;;;;;;6254561;28;20054;-68
2023/04/17 00:10:38;;;;;;;6.93;4.03;;;13.20;57.70;;;;;;6254622;28;20025;-69
2023/04/17 00:13:39;;;;;;;8.43;4.30;;;13.20;57.60;;;;;;6253160;28;20106;-68
2023/04/17 00:16:40;;;;;;;7.70;3.85;;;13.20;57.60;;;;;;6253193;28;20030;-70
2023/04/17 00:19:41;;;;;;;12.13;4.18;;;13.10;57.60;;;;;;6255169;28;20043;-69
2023/04/17 00:22:42;;;;;;;7.93;4.00;;;13.10;57.60;;;;;;6252456;28;20338;-68
2023/04/17 00:25:43;;;;;;;7.38;3.90;;;13.10;57.70;;;;;;6236557;28;20370;-67
2023/04/17 00:28:45;;;;;;;8.20;4.80;;;13.20;57.70;;;;;;6253805;28;20041;-67
2023/04/17 00:31:47;;;;;;;7.70;3.85;;;13.10;57.60;;;;;;6253288;28;20037;-67
2023/04/17 00:34:49;;;;;;;9.40;4.25;;;13.20;57.70;;;;;;6252676;28;20110;-66
2023/04/17 00:37:50;;;;;;;11.60;4.72;;;13.10;57.70;;;;;;6250879;28;20103;-68
2023/04/17 00:40:50;;;;;;;9.57;4.75;;;13.10;57.80;;;;;;6252048;28;20030;-67
2023/04/17 00:43:51;;;;;;;9.60;3.97;;;13.10;57.70;;;;;;6253625;28;20382;-68
2023/04/17 00:46:52;;;;;;;11.68;4.63;;;13.20;57.70;;;;;;6254373;28;20120;-67
2023/04/17 00:49:53;;;;;;;6.97;3.95;;;13.20;57.70;;;;;;6253034;28;20038;-68
2023/04/17 00:52:57;;;;;;;8.27;3.75;;;13.20;57.70;;;;;;6253667;28;20037;-68
2023/04/17 00:56:02;;;;;;;8.48;4.22;;;13.20;57.70;;;;;;6253495;28;20033;-68
2023/04/17 00:59:05;;;;;;;10.40;4.20;;;13.20;58.30;;;;;;6251584;28;20041;-66
2023/04/17 01:02:06;;;;;;;7.00;4.18;;;13.10;57.70;;;;;;6253238;28;20156;-67
2023/04/17 01:05:07;;;;;;;7.97;4.07;;;13.10;57.80;;;;;;6253138;28;20147;-67
2023/04/17 01:08:08;;;;;;;7.78;3.95;;;13.10;57.80;;;;;;6253181;28;20041;-67
2023/04/17 01:11:12;;;;;;;9.82;3.88;;;13.10;57.80;;;;;;6251962;28;20044;-68
2023/04/17 01:14:14;;;;;;;9.70;4.88;;;13.10;57.80;;;;;;6251530;28;20028;-68
2023/04/17 01:17:17;;;;;;;5.88;4.00;;;13.10;57.80;;;;;;6251930;28;20047;-68
2023/04/17 01:20:18;;;;;;;9.52;4.10;;;13.30;57.90;;;;;;6242605;28;20084;-69
2023/04/17 01:23:19;;;;;;;11.02;4.53;;;13.20;57.80;;;;;;6235153;28;20426;-67
2023/04/17 01:26:25;;;;;;;7.88;4.07;;;13.20;57.70;;;;;;6251303;28;20034;-69
2023/04/17 01:29:26;;;;;;;6.45;3.65;;;13.20;57.70;;;;;;6251330;28;20548;-68
2023/04/17 01:32:27;;;;;;;8.05;3.88;;;13.20;57.70;;;;;;6251980;28;20033;-69
2023/04/17 01:35:28;;;;;;;12.85;4.45;;;13.20;57.70;;;;;;6251701;28;20037;-70
2023/04/17 01:38:29;;;;;;;7.55;3.75;;;13.20;57.60;;;;;;6252394;28;20095;-69
2023/04/17 01:41:30;;;;;;;9.48;3.97;;;13.20;57.50;;;;;;6250776;28;20026;-68
2023/04/17 01:44:31;;;;;;;7.38;3.83;;;13.30;57.50;;;;;;6252116;28;20115;-68
2023/04/17 01:47:32;;;;;;;6.50;3.65;;;13.30;57.50;;;;;;6249660;28;20029;-68
2023/04/17 01:50:33;;;;;;;9.35;4.10;;;13.20;57.40;;;;;;6252358;28;20041;-68
2023/04/17 01:53:36;;;;;;;9.18;4.30;;;13.30;57.50;;;;;;6251127;28;20045;-67
2023/04/17 01:56:37;;;;;;;9.05;4.05;;;13.30;57.40;;;;;;6250858;28;20037;-69
2023/04/17 01:59:38;;;;;;;7.20;3.83;;;13.20;57.40;;;;;;6249101;28;20099;-68
2023/04/17 02:02:39;;;;;;;10.07;4.50;;;13.30;57.40;;;;;;6250137;28;20028;-68
2023/04/17 02:05:44;;;;;;;10.15;3.55;;;13.30;57.40;;;;;;6250627;28;20397;-68
2023/04/17 02:08:46;;;;;;;10.07;4.93;;;13.20;57.40;;;;;;6251488;28;20045;-68
2023/04/17 02:11:47;;;;;;;13.57;4.47;;;13.30;57.50;;;;;;6251379;28;20037;-67
2023/04/17 02:14:48;;;;;;;9.05;4.13;;;13.20;57.50;;;;;;6252025;28;20040;-67
2023/04/17 02:17:48;;;;;;;7.78;4.18;;;13.20;57.50;;;;;;6250041;28;20541;-69
2023/04/17 02:20:49;;;;;;;6.55;3.83;;;13.20;57.60;;;;;;6250270;28;20112;-69
2023/04/17 02:23:50;;;;;;;12.93;4.40;;;13.20;57.70;;;;;;6251237;28;20039;-69
2023/04/17 02:26:51;;;;;;;8.65;3.65;;;13.20;57.70;;;;;;6249950;28;20030;-67
2023/04/17 02:29:52;;;;;;;7.93;4.82;;;13.20;57.70;;;;;;6251170;28;20055;-71
2023/04/17 02:32:54;;;;;;;9.82;4.70;;;13.20;57.60;;;;;;6251692;28;20052;-67
2023/04/17 02:35:55;;;;;;;9.70;4.88;;;13.20;57.60;;;;;;6249209;28;20112;-71
2023/04/17 02:39:02;;;;;;;8.32;3.88;;;13.20;57.50;;;;;;6249185;28;20125;-68
2023/04/17 02:42:03;;;;;;;10.98;4.57;;;13.20;57.50;;;;;;6249038;28;20025;-68
2023/04/17 02:45:05;;;;;;;7.78;4.50;;;13.20;57.40;;;;;;6249449;28;20036;-67
2023/04/17 02:48:06;;;;;;;11.55;5.38;;;13.30;57.50;;;;;;6249553;28;20049;-70
2023/04/17 02:51:07;;;;;;;8.70;4.95;;;13.20;57.40;;;;;;6249132;28;20068;-68
2023/04/17 02:54:08;;;;;;;9.23;4.68;;;13.20;57.60;;;;;;6249535;28;20033;-68
2023/04/17 02:57:08;;;;;;;10.10;4.80;;;13.20;57.70;;;;;;6250800;28;20142;-68
2023/04/17 03:00:13;;;;;;;10.95;4.72;;;13.10;57.70;;;;;;6248870;28;20106;-70
2023/04/17 03:03:14;;;;;;;11.77;5.20;;;13.20;57.70;;;;;;6248686;28;20032;-68
2023/04/17 03:06:15;;;;;;;8.30;4.35;;;13.20;57.70;;;;;;6250411;28;20613;-68
2023/04/17 03:09:17;;;;;;;8.77;4.95;;;13.20;57.60;;;;;;6249894;28;20719;-69
2023/04/17 03:12:18;;;;;;;10.85;5.28;;;13.20;58.20;;;;;;6248798;28;20078;-69
2023/04/17 03:15:19;;;;;;;8.35;4.97;;;13.20;57.60;;;;;;6250642;28;20037;-68
2023/04/17 03:18:19;;;;;;;9.60;4.30;;;13.20;57.70;;;;;;6248614;28;20388;-68
2023/04/17 03:21:20;;;;;;;9.15;5.20;;;13.20;57.70;;;;;;6248900;28;20029;-69
2023/04/17 03:24:22;;;;;;;12.55;5.30;;;13.10;57.80;;;;;;6248653;28;20117;-68
2023/04/17 03:27:23;;;;;;;11.13;4.45;;;13.10;57.80;;;;;;6248133;28;20018;-67
2023/04/17 03:30:26;;;;;;;10.52;4.40;;;13.10;57.80;;;;;;6248942;28;20032;-71
2023/04/17 03:33:30;;;;;;;12.25;5.05;;;13.10;57.80;;;;;;6248916;28;20033;-68
2023/04/17 03:36:32;;;;;;;9.48;5.00;;;13.20;57.70;;;;;;6248614;28;20060;-67
2023/04/17 03:39:33;;;;;;;11.82;5.72;;;13.10;57.80;;;;;;6248300;28;20509;-68
2023/04/17 03:42:35;;;;;;;11.50;5.45;;;13.10;57.80;;;;;;6232600;28;20537;-67
2023/04/17 03:45:36;;;;;;;9.25;5.40;;;13.10;57.90;;;;;;6247799;28;20026;-68
2023/04/17 03:48:37;;;;;;;9.02;5.22;;;13.10;57.90;;;;;;6248693;28;20124;-69
2023/04/17 03:51:41;;;;;;;12.68;5.20;;;13.10;58.00;;;;;;6249874;28;20056;-67
2023/04/17 03:54:48;;;;;;;9.77;5.30;;;13.10;58.00;;;;;;6249031;28;20032;-67
2023/04/17 03:57:50;;;;;;;12.05;4.50;;;13.10;58.00;;;;;;6248069;28;20438;-69
2023/04/17 04:00:54;;;;;;;9.52;5.28;;;13.10;58.10;;;;;;6248466;28;20028;-69
2023/04/17 04:03:59;;;;;;;13.98;5.63;;;13.10;58.10;;;;;;6248093;28;21247;-68
2023/04/17 04:07:00;;;;;;;9.30;5.13;;;13.10;58.10;;;;;;6248870;28;20106;-68
2023/04/17 04:10:02;;;;;;;11.68;5.63;;;13.10;58.10;;;;;;6248280;28;20041;-68
2023/04/17 04:13:05;;;;;;;11.18;5.85;;;13.10;58.10;;;;;;6236166;28;20402;-68
2023/04/17 04:16:06;;;;;;;16.63;5.60;;;13.10;58.20;;;;;;6236935;28;20084;-68
2023/04/17 04:19:09;;;;;;;8.63;4.85;;;13.00;58.10;;;;;;6236196;28;20029;-68
2023/04/17 04:22:12;;;;;;;9.63;5.55;;;13.10;58.20;;;;;;6254078;28;20083;-68
2023/04/17 04:25:20;;;;;;;15.00;5.55;;;13.10;58.30;;;;;;6252965;28;20034;-67
2023/04/17 04:28:37;;;;;;;15.13;5.40;;;13.00;58.30;;;;;;6252467;28;20068;-69
2023/04/17 04:31:41;;;;;;;9.82;4.80;;;13.00;58.40;;;;;;6253393;28;20048;-68
2023/04/17 04:34:43;;;;;;;9.45;4.85;;;13.00;58.40;;;;;;6252426;28;20041;-68
2023/04/17 04:37:47;;;;;;;9.95;4.93;;;13.00;58.40;;;;;;6251231;28;20144;-68
2023/04/17 04:40:48;;;;;;;12.38;5.47;;;13.10;58.40;;;;;;6252076;28;20303;-70
2023/04/17 04:43:50;;;;;;;8.50;4.20;;;13.10;58.30;;;;;;6251778;28;20029;-68
2023/04/17 04:46:54;;;;;;;9.02;4.55;;;13.10;58.30;;;;;;6251579;28;20047;-69
2023/04/17 04:49:55;;;;;;;13.63;4.82;;;13.20;58.20;;;;;;6252148;28;20436;-69
2023/04/17 04:52:57;;;;;;;11.63;5.28;;;13.10;58.10;;;;;;6251884;28;20197;-69
2023/04/17 04:56:08;;;;;;;12.18;5.18;;;13.20;58.10;;;;;;6252605;28;20037;-68
2023/04/17 04:59:10;;;;;;;13.98;5.68;;;13.20;58.00;;;;;;6251419;28;20033;-68
2023/04/17 05:02:12;;;;;;;9.82;5.13;;;13.20;58.00;;;;;;6251862;28;20029;-68
2023/04/17 05:05:14;;;;;;;11.52;5.43;;;13.20;58.00;;;;;;6251856;28;20091;-69
2023/04/17 05:08:15;;;;;;;14.95;5.65;;;13.30;58.00;;;;;;6251514;28;20063;-68
2023/04/17 05:11:22;;;;;;;9.55;4.88;;;13.30;58.00;;;;;;6251510;28;20037;-68
2023/04/17 05:14:24;;;;;;;12.70;4.95;;;13.30;57.90;;;;;;6235609;28;20025;-70
2023/04/17 05:17:25;;;;;;;10.27;4.95;;;13.40;57.90;;;;;;6251696;28;20660;-68
2023/04/17 05:20:27;;;;;;;9.60;5.05;;;13.40;57.80;;;;;;6251228;28;20537;-68
2023/04/17 05:23:31;;;;;;;8.48;4.53;;;13.40;57.70;;;;;;6251499;28;20048;-69
2023/04/17 05:26:32;;;;;;;10.18;5.07;;;13.40;57.60;;;;;;6250968;28;20083;-68
2023/04/17 05:29:36;;;;;;;11.48;5.50;;;13.40;57.60;;;;;;6250614;28;20422;-68
2023/04/17 05:32:37;;;;;;;12.15;5.93;;;13.40;57.60;;;;;;6251705;28;20163;-70
2023/04/17 05:35:57;;;;;;;11.38;5.25;;;13.40;57.70;;;;;;6252825;28;20486;-69
2023/04/17 05:38:59;;;;;;;14.05;5.93;;;13.40;57.60;;;;;;6251061;28;20037;-68
2023/04/17 05:42:00;;;;;;;13.55;4.97;;;13.30;57.50;;;;;;6252393;28;20059;-69
2023/04/17 05:45:01;;;;;;;8.43;4.80;;;13.30;57.60;;;;;;6251337;28;20082;-68
2023/04/17 05:48:03;;;;;;;13.38;4.93;;;13.40;57.70;;;;;;6251651;28;20032;-68
2023/04/17 05:51:03;;;;;;;15.13;6.10;;;13.40;57.70;;;;;;6251641;28;20020;-69
2023/04/17 05:54:06;;;;;;;13.60;6.00;;;13.40;57.70;;;;;;6252136;28;20190;-67
2023/04/17 05:57:07;;;;;;;9.65;5.28;;;13.30;57.60;;;;;;6250061;28;20047;-68
2023/04/17 06:00:11;;;;;;;9.30;5.03;;;13.40;57.70;;;;;;6250503;28;20034;-68
2023/04/17 06:03:15;;;;;;;10.43;5.50;;;13.40;57.70;;;;;;6252884;28;20048;-68
2023/04/17 06:06:18;;;;;;;11.13;6.13;;;13.40;57.60;;;;;;6252732;28;20106;-69
2023/04/17 06:09:19;;;;;;;18.92;5.95;;;13.40;57.60;;;;;;6250308;28;20536;-66
2023/04/17 06:12:19;;;;;;;9.57;4.95;;;13.40;57.60;;;;;;6249823;28;20045;-68
2023/04/17 06:15:20;;;;;;;11.63;5.45;;;13.40;57.60;;;;;;6249960;28;20044;-69
2023/04/17 06:18:22;;;;;;;10.98;5.05;;;13.40;57.60;;;;;;6250252;28;20112;-68
2023/04/17 06:21:23;;;;;;;19.60;6.60;;;13.40;57.60;;;;;;6252088;28;20424;-67
2023/04/17 06:24:26;;;;;;;10.55;5.47;;;13.50;57.60;;;;;;6250411;28;20067;-69
2023/04/17 06:27:29;;;;;;;11.98;5.32;;;13.50;57.60;;;;;;6233214;28;20100;-67
2023/04/17 06:30:31;;;;;;;10.95;5.43;;;13.50;57.50;;;;;;6250274;28;20053;-68
2023/04/17 06:33:32;;;;;;;15.77;6.45;;;13.50;57.50;;;;;;6249054;28;20021;-68
2023/04/17 06:36:33;;;;;;;9.75;5.22;;;13.60;57.50;;;;;;6249326;28;20084;-68
2023/04/17 06:39:36;;;;;;;8.60;4.55;;;13.60;57.50;;;;;;6248860;28;20486;-67
2023/04/17 06:42:37;;;;;;;12.98;5.38;;;13.70;57.40;;;;;;6250372;28;20173;-67
2023/04/17 06:45:41;;;;;;;13.18;5.05;;;13.70;57.30;;;;;;6249092;28;20040;-67
2023/04/17 06:48:42;;;;;;;22.17;6.13;;;13.70;57.20;;;;;;6250245;28;20436;-68
2023/04/17 06:51:44;;;;;;;12.35;5.88;;;13.70;57.20;;;;;;6249048;28;20036;-69
2023/04/17 06:54:45;;;;;;;16.15;6.05;;;13.70;57.20;;;;;;6251361;28;20071;-67
2023/04/17 06:57:46;;;;;;;14.35;5.68;;;13.60;57.20;;;;;;6251595;28;21191;-67
2023/04/17 07:00:47;;;;;;;9.35;5.18;;;13.70;57.20;;;;;;6250702;28;20109;-67
2023/04/17 07:03:48;;;;;;;10.30;4.82;;;13.70;57.20;;;;;;6249438;28;20032;-69
2023/04/17 07:06:50;;;;;;;11.38;6.22;;;13.70;57.20;;;;;;6251121;28;20095;-69
2023/04/17 07:09:51;;;;;;;17.20;5.60;;;13.70;57.20;;;;;;6249712;28;20033;-67
2023/04/17 07:12:52;;;;;;;11.63;5.75;;;13.80;57.10;;;;;;6250578;28;20020;-68
2023/04/17 07:15:54;;;;;;;10.35;5.70;;;13.80;57.10;;;;;;6251257;28;20071;-67
2023/04/17 07:18:55;;;;;;;16.15;6.07;;;13.80;57.10;;;;;;6249717;28;20486;-69
2023/04/17 07:21:55;;;;;;;11.38;5.88;;;13.80;57.10;;;;;;6250668;28;20128;-68
2023/04/17 07:24:56;;;;;;;10.77;5.47;;;13.80;57.10;;;;;;6250122;28;20361;-66
2023/04/17 07:27:57;;;;;;;13.73;6.75;;;13.80;57.20;;;;;;6250701;28;20033;-70
2023/04/17 07:30:58;;;;;;;14.25;5.18;;;13.80;57.20;;;;;;6250462;28;20121;-66
2023/04/17 07:33:59;;;;;;;8.95;5.25;;;13.80;57.20;;;;;;6250496;28;20430;-69
2023/04/17 07:37:00;;;;;;;10.18;5.72;;;13.80;57.20;;;;;;6247619;28;20038;-69
2023/04/17 07:40:02;;;;;;;10.95;4.90;;;13.90;57.10;;;;;;6250760;28;21175;-68
2023/04/17 07:43:03;;;;;;;12.23;5.85;;;13.90;57.00;;;;;;6250766;28;20419;-68
2023/04/17 07:46:04;;;;;;;12.60;5.47;;;14.00;56.90;;;;;;6252106;28;20097;-68
2023/04/17 07:49:05;;;;;;;16.20;6.32;;;14.20;56.80;;;;;;6253771;28;20040;-68
2023/04/17 07:52:06;;;;;;;12.95;5.38;;;14.20;56.60;;;;;;6255030;28;20048;-66
2023/04/17 07:55:07;;;;;;;13.02;5.32;;;14.30;56.50;;;;;;6255548;28;20048;-68
2023/04/17 07:58:10;;;;;;;9.60;5.05;;;14.40;56.30;;;;;;6256594;28;20180;-69
2023/04/17 08:01:11;;;;;;;12.80;6.60;;;14.40;56.10;;;;;;6254431;28;20055;-72
2023/04/17 08:04:12;;;;;;;13.93;6.07;;;14.50;56.00;;;;;;6254682;28;20064;-66
2023/04/17 08:07:13;;;;;;;9.65;5.38;;;14.50;56.00;;;;;;6256443;28;20057;-69
2023/04/17 08:10:14;;;;;;;13.85;5.28;;;14.70;55.90;;;;;;6255527;28;20145;-71
2023/04/17 08:13:15;;;;;;;8.98;5.28;;;14.70;55.60;;;;;;6255549;28;20029;-68
2023/04/17 08:16:16;;;;;;;15.98;6.38;;;14.70;55.50;;;;;;6255863;28;20492;-69
2023/04/17 08:19:17;;;;;;;18.55;5.78;;;14.80;55.40;;;;;;6255115;28;20053;-67
2023/04/17 08:22:20;;;;;;;14.70;5.30;;;14.80;55.30;;;;;;6254802;28;20052;-68
2023/04/17 08:25:21;;;;;;;14.55;5.63;;;14.90;55.20;;;;;;6254108;28;20091;-68
2023/04/17 08:28:23;;;;;;;9.77;5.45;;;15.00;55.10;;;;;;6253863;28;20033;-68
2023/04/17 08:31:25;;;;;;;11.10;5.40;;;15.00;54.90;;;;;;6253268;28;20048;-68
2023/04/17 08:34:26;;;;;;;11.20;5.43;;;15.00;54.90;;;;;;6253232;28;20114;-68
2023/04/17 08:37:27;;;;;;;12.85;6.05;;;15.10;55.00;;;;;;6253290;28;20021;-69
2023/04/17 08:40:28;;;;;;;9.80;5.60;;;15.10;54.80;;;;;;6253181;28;20127;-67
2023/04/17 08:43:29;;;;;;;10.48;5.35;;;15.20;54.70;;;;;;6253181;28;20056;-68
2023/04/17 08:46:33;;;;;;;10.68;5.82;;;15.30;54.50;;;;;;6254874;28;20037;-68
2023/04/17 08:49:35;;;;;;;12.70;5.82;;;15.40;54.30;;;;;;6252401;28;20548;-67
2023/04/17 08:52:43;;;;;;;9.00;5.07;;;15.40;54.10;;;;;;6252445;28;20123;-68
2023/04/17 08:55:45;;;;;;;10.63;5.35;;;15.40;54.00;;;;;;6253926;28;20042;-69
2023/04/17 08:58:46;;;;;;;9.70;5.55;;;15.40;54.10;;;;;;6252912;28;20031;-68
2023/04/17 09:02:06;;;;;;;9.52;5.53;;;15.40;54.00;;;;;;6253171;28;20037;-69
2023/04/17 09:05:18;;;;;;;11.45;5.53;;;15.40;54.00;;;;;;6252459;28;20024;-67
2023/04/17 09:08:22;;;;;;;13.15;5.60;;;15.30;54.00;;;;;;6253624;28;20079;-67
2023/04/17 09:11:24;;;;;;;11.55;4.88;;;15.30;54.00;;;;;;6253165;28;20036;-68
2023/04/17 09:14:29;;;;;;;13.13;5.20;;;15.30;54.00;;;;;;6251977;28;20090;-70
2023/04/17 09:17:33;;;;;;;7.75;4.60;;;15.30;54.00;;;;;;6253472;28;20037;-68
2023/04/17 09:20:48;;;;;;;9.65;4.85;;;15.30;53.80;;;;;;6252776;28;20051;-68
2023/04/17 09:23:55;;;;;;;9.32;4.80;;;15.40;53.90;;;;;;6252976;28;20726;-67
2023/04/17 09:27:17;;;;;;;12.00;5.60;;;15.40;53.90;;;;;;6252629;28;20029;-68
2023/04/17 09:30:19;;;;;;;10.30;5.30;;;15.40;53.80;;;;;;6253502;28;20058;-68
2023/04/17 09:33:19;;;;;;;10.85;5.45;;;15.50;53.70;;;;;;6251861;28;20036;-69
2023/04/17 09:36:20;;;;;;;10.35;4.80;;;15.50;53.70;;;;;;6251911;28;20036;-68
2023/04/17 09:39:25;;;;;;;11.32;4.70;;;15.50;53.60;;;;;;6253353;28;20071;-70
2023/04/17 09:42:27;;;;;;;9.75;5.07;;;15.50;53.60;;;;;;6251428;28;20685;-69
2023/04/17 09:45:35;;;;;;;10.13;4.85;;;15.50;53.70;;;;;;6252388;28;20043;-67
2023/04/17 09:48:36;;;;;;;9.20;4.97;;;15.50;53.30;;;;;;6234522;28;20037;-66
2023/04/17 09:51:37;;;;;;;10.48;4.97;;;15.50;53.30;;;;;;6251811;28;20246;-67
2023/04/17 09:54:39;;;;;;;9.85;4.75;;;15.50;53.40;;;;;;6250559;28;20045;-68
2023/04/17 09:57:41;;;;;;;9.38;5.38;;;15.50;53.50;;;;;;6251108;28;20041;-69
2023/04/17 10:00:42;;;;;;;8.25;4.70;;;15.60;53.50;;;;;;6250497;28;20119;-69
2023/04/17 10:03:42;;;;;;;15.38;5.05;;;15.60;53.40;;;;;;6250428;28;20059;-68
2023/04/17 10:06:44;;;;;;;12.77;5.68;;;15.70;53.30;;;;;;6251920;28;20072;-67
2023/04/17 10:09:46;;;;;;;8.55;4.60;;;15.60;53.20;;;;;;6251653;28;20031;-68
2023/04/17 10:12:48;;;;;;;9.25;4.40;;;15.60;53.40;;;;;;6252239;28;20092;-67
2023/04/17 10:15:50;;;;;;;6.53;4.03;;;15.60;53.40;;;;;;6250469;28;20097;-69
2023/04/17 10:19:30;;;;;;;15.50;4.15;;;15.60;53.30;;;;;;6250523;28;20204;-69
2023/04/17 10:22:33;;;;;;;11.27;4.72;;;15.70;53.20;;;;;;6249747;28;20040;-69
2023/04/17 10:25:33;;;;;;;12.40;5.03;;;15.70;53.10;;;;;;6251054;28;20017;-67
2023/04/17 10:28:48;;;;;;;6.45;4.20;;;15.80;53.20;;;;;;6251350;28;20382;-68
2023/04/17 10:32:07;;;;;;;9.90;5.03;;;15.80;53.00;;;;;;6251998;28;20105;-69
2023/04/17 10:35:14;;;;;;;9.40;4.72;;;15.80;52.80;;;;;;6251221;28;20068;-67
2023/04/17 10:38:28;;;;;;;10.25;4.88;;;15.80;52.80;;;;;;6250768;28;20029;-69
2023/04/17 10:41:31;;;;;;;8.20;4.85;;;15.80;52.70;;;;;;6250718;28;20021;-68
2023/04/17 10:44:39;;;;;;;10.15;5.35;;;15.90;52.70;;;;;;6250772;28;20136;-69
2023/04/17 10:47:40;;;;;;;9.48;3.95;;;15.90;52.70;;;;;;6249536;28;20450;-69
2023/04/17 10:50:41;;;;;;;10.23;4.72;;;15.90;52.50;;;;;;6250639;28;20021;-67
2023/04/17 10:53:44;;;;;;;7.38;4.05;;;16.00;52.40;;;;;;6249481;28;20399;-69
2023/04/17 10:56:47;;;;;;;8.00;4.43;;;16.10;52.30;;;;;;6250770;28;20041;-69
2023/04/17 11:00:11;;;;;;;11.00;5.03;;;16.10;52.20;;;;;;6249006;28;20129;-70
2023/04/17 11:03:14;;;;;;;9.40;4.63;;;16.00;52.10;;;;;;6250917;28;20457;-69
2023/04/17 11:06:16;;;;;;;10.38;4.72;;;16.00;52.20;;;;;;6249245;28;20474;-68
2023/04/17 11:09:19;;;;;;;11.13;4.70;;;16.10;52.10;;;;;;6250888;28;20029;-69
2023/04/17 11:12:20;;;;;;;8.02;4.32;;;16.20;52.10;;;;;;6250790;28;20040;-70
2023/04/17 11:15:28;;;;;;;8.07;4.75;;;16.20;51.90;;;;;;6248790;28;20025;-68
2023/04/17 11:18:30;;;;;;;;;;;16.30;51.70;;;;;;6250296;28;20029;-66
2023/04/17 11:21:31;;;;;;;8.48;4.22;;;16.30;51.60;;;;;;6257052;28;19928;-67
2023/04/17 11:24:32;;;;;;;6.93;4.00;;;16.20;51.40;;;;;;6241202;28;20131;-68
2023/04/17 11:27:33;;;;;;;10.85;5.18;;;16.20;51.30;;;;;;6259082;28;20134;-69
2023/04/17 11:30:43;;;;;;;7.63;4.07;;;16.20;51.40;;;;;;6259048;28;20151;-69
2023/04/17 11:33:47;;;;;;;9.30;3.88;;;16.20;51.30;;;;;;6258203;28;20514;-68
2023/04/17 11:36:56;;;;;;;9.75;4.25;;;16.20;51.30;;;;;;6257067;28;20056;-67
2023/04/17 11:40:08;;;;;;;6.45;4.07;;;16.20;51.40;;;;;;6240764;28;20084;-68
2023/04/17 11:43:11;;;;;;;23.95;4.93;;;16.30;51.30;;;;;;6240710;28;20028;-68
2023/04/17 11:46:11;;;;;;;11.40;4.65;;;16.40;51.00;;;;;;6257316;28;20021;-68
2023/04/17 11:49:12;;;;;;;7.82;4.22;;;16.50;51.00;;;;;;6257830;28;20644;-72
2023/04/17 11:52:14;;;;;;;16.55;4.55;;;16.70;50.80;;;;;;6258864;28;20127;-70
2023/04/17 11:55:15;;;;;;;8.02;3.95;;;16.80;50.60;;;;;;6259616;28;20115;-68
2023/04/17 11:58:16;;;;;;;7.78;3.55;;;16.90;50.80;;;;;;6259952;28;20098;-70
2023/04/17 12:01:19;;;;;;;7.68;4.55;;;17.00;50.00;;;;;;6260558;28;20033;-69
2023/04/17 12:04:20;;;;;;;7.07;4.18;;;17.00;49.80;;;;;;6259580;28;20071;-69
2023/04/17 12:07:23;;;;;;;6.47;3.30;;;17.00;49.70;;;;;;6257088;28;20028;-68
2023/04/17 12:10:38;;;;;;;6.03;3.45;;;17.10;49.70;;;;;;6257073;28;20123;-67
2023/04/17 12:13:39;;;;;;;7.20;3.72;;;17.20;49.50;;;;;;6257597;28;20132;-69
2023/04/17 12:16:40;;;;;;;7.15;3.90;;;17.30;49.20;;;;;;6257617;28;20388;-68
2023/04/17 12:19:41;;;;;;;7.93;3.92;;;17.30;48.90;;;;;;6259989;28;20040;-68
2023/04/17 12:22:42;;;;;;;6.65;3.50;;;17.40;48.90;;;;;;6257690;28;20032;-68
2023/04/17 12:25:42;;;;;;;7.03;3.42;;;17.40;48.80;;;;;;6259413;28;20026;-68
2023/04/17 12:28:44;;;;;;;5.70;3.20;;;17.40;48.80;;;;;;6258357;28;20544;-68
2023/04/17 12:31:45;;;;;;;7.15;3.22;;;17.40;48.70;;;;;;6256873;28;20113;-69
2023/04/17 12:34:46;;;;;;;8.00;3.88;;;17.40;48.80;;;;;;6254792;28;20075;-69
2023/04/17 12:37:50;;;;;;;9.20;4.00;;;17.40;48.70;;;;;;6254548;28;20053;-68
2023/04/17 12:40:50;;;;;;;6.78;3.83;;;17.50;48.60;;;;;;6253355;28;20028;-70
2023/04/17 12:43:54;;;;;;;6.15;3.92;;;17.60;48.40;;;;;;6256432;28;20037;-69
2023/04/17 12:46:55;;;;;;;6.75;3.72;;;17.60;48.10;;;;;;6256059;28;20174;-69
2023/04/17 12:49:56;;;;;;;4.35;3.10;;;17.70;48.10;;;;;;6256610;28;20029;-69
2023/04/17 12:52:57;;;;;;;12.60;3.75;;;17.90;48.70;;;;;;6256015;28;20072;-69
2023/04/17 12:55:58;;;;;;;5.47;3.28;;;18.00;47.70;;;;;;6254421;28;20140;-68
2023/04/17 12:58:59;;;;;;;7.25;3.90;;;18.10;47.40;;;;;;6254600;28;20037;-69
2023/04/17 13:02:00;;;;;;;5.53;3.38;;;18.10;47.30;;;;;;6253454;28;20086;-69
2023/04/17 13:05:01;;;;;;;6.07;3.65;;;18.30;47.20;;;;;;6254860;28;20036;-71
2023/04/17 13:08:02;;;;;;;8.07;3.92;;;18.50;46.90;;;;;;6253803;28;20094;-69
2023/04/17 13:11:04;;;;;;;5.57;3.53;;;18.70;46.60;;;;;;6254646;28;20441;-68
2023/04/17 13:14:04;;;;;;;7.45;3.47;;;18.90;46.30;;;;;;6252427;28;20064;-69
2023/04/17 13:17:06;;;;;;;6.55;3.50;;;19.00;46.10;;;;;;6252321;28;20038;-71
2023/04/17 13:20:07;;;;;;;7.03;3.63;;;19.20;45.90;;;;;;6251697;28;20037;-68
2023/04/17 13:23:10;;;;;;;6.10;3.40;;;19.30;45.50;;;;;;6252488;28;20029;-70
2023/04/17 13:26:11;;;;;;;8.48;3.20;;;19.40;45.40;;;;;;6252056;28;20116;-70
2023/04/17 13:29:12;;;;;;;3.90;2.58;;;19.40;45.30;;;;;;6251630;28;20028;-69
2023/04/17 13:32:13;;;;;;;8.85;3.47;;;19.50;45.10;;;;;;6253345;28;20088;-71
2023/04/17 13:35:16;;;;;;;5.50;3.20;;;19.50;44.80;;;;;;6251453;28;20031;-69
2023/04/17 13:38:17;;;;;;;5.88;3.17;;;19.60;44.60;;;;;;6252345;28;20045;-68
2023/04/17 13:41:18;;;;;;;10.65;3.63;;;19.60;44.60;;;;;;6252612;28;20090;-70
2023/04/17 13:44:19;;;;;;;6.38;2.80;;;19.70;44.60;;;;;;6250604;28;20093;-68
2023/04/17 13:47:20;;;;;;;7.10;3.28;;;19.80;44.50;;;;;;6251164;28;20033;-69
2023/04/17 13:50:21;;;;;;;6.80;3.30;;;20.10;44.10;;;;;;6251994;28;20494;-68
2023/04/17 13:53:22;;;;;;;5.88;3.17;;;20.40;43.40;;;;;;6252121;28;20033;-68
2023/04/17 13:56:24;;;;;;;4.78;2.95;;;20.50;43.10;;;;;;6252807;28;20044;-69
2023/04/17 13:59:25;;;;;;;7.38;3.13;;;20.60;42.80;;;;;;6251035;28;20028;-69
2023/04/17 14:02:26;;;;;;;10.20;2.58;;;20.70;42.60;;;;;;6251963;28;20065;-70
2023/04/17 14:05:27;;;;;;;4.28;2.47;;;20.70;42.30;;;;;;6253567;28;20282;-69
2023/04/17 14:08:28;;;;;;;4.47;2.50;;;20.60;42.10;;;;;;6251094;28;20580;-68
2023/04/17 14:11:29;;;;;;;6.63;2.88;;;20.50;42.10;;;;;;6250490;28;20032;-68
2023/04/17 14:14:30;;;;;;;5.20;2.60;;;20.30;42.00;;;;;;6251589;28;20382;-67
2023/04/17 14:17:31;;;;;;;4.30;2.72;;;20.30;42.30;;;;;;6250736;28;20033;-69
2023/04/17 14:20:32;;;;;;;5.80;3.40;;;20.30;42.40;;;;;;6250434;28;20147;-70
2023/04/17 14:23:32;;;;;;;6.95;3.15;;;20.20;42.40;;;;;;6252380;28;20067;-69
2023/04/17 14:26:34;;;;;;;5.93;3.05;;;20.20;42.50;;;;;;6251543;28;20021;-68
2023/04/17 14:29:36;;;;;;;5.68;2.95;;;20.30;42.40;;;;;;6249203;28;20041;-68
2023/04/17 14:32:37;;;;;;;5.20;3.00;;;20.10;42.50;;;;;;6251847;28;20286;-68
2023/04/17 14:35:39;;;;;;;4.78;3.00;;;20.10;42.60;;;;;;6249377;28;20039;-69
2023/04/17 14:38:39;;;;;;;5.75;2.83;;;20.10;42.60;;;;;;6250724;28;20465;-69
2023/04/17 14:41:40;;;;;;;5.78;3.13;;;20.20;42.70;;;;;;6250314;28;20086;-69
2023/04/17 14:44:42;;;;;;;6.07;2.88;;;20.20;42.70;;;;;;6251563;28;20527;-68
2023/04/17 14:47:43;;;;;;;3.63;2.63;;;20.30;42.80;;;;;;6250577;28;20391;-69
2023/04/17 14:50:45;;;;;;;6.20;3.05;;;20.30;42.40;;;;;;6250022;28;20044;-68
2023/04/17 14:53:46;;;;;;;8.82;3.47;;;20.50;42.30;;;;;;6250456;28;20566;-68
2023/04/17 14:56:46;;;;;;;4.13;2.70;;;20.50;42.20;;;;;;6248619;28;20036;-68
2023/04/17 14:59:47;;;;;;;3.33;2.13;;;20.50;42.00;;;;;;6249909;28;20130;-69
2023/04/17 15:02:48;;;;;;;4.45;2.80;;;20.40;41.80;;;;;;6251380;28;20043;-68
2023/04/17 15:05:51;;;;;;;2.88;2.35;;;20.30;41.80;;;;;;6249779;28;20446;-68
2023/04/17 15:08:51;;;;;;;8.60;2.60;;;20.20;41.90;;;;;;6250305;28;20026;-68
2023/04/17 15:11:52;;;;;;;3.63;2.05;;;20.20;42.10;;;;;;6250586;28;20033;-68
2023/04/17 15:14:55;;;;;;;4.80;2.13;;;20.20;42.00;;;;;;6249440;28;20026;-68
2023/04/17 15:17:56;;;;;;;3.78;2.10;;;20.20;41.90;;;;;;6249108;28;20445;-68
2023/04/17 15:20:57;;;;;;;5.50;2.20;;;20.30;41.90;;;;;;6248389;28;20044;-68
2023/04/17 15:23:58;;;;;;;3.83;2.20;;;20.50;41.80;;;;;;6249099;28;20021;-69
2023/04/17 15:26:59;;;;;;;4.95;2.38;;;20.70;41.50;;;;;;6249895;28;20167;-68
2023/04/17 15:30:00;;;;;;;2.17;1.67;;;20.90;41.30;;;;;;6250593;28;20059;-69
2023/04/17 15:33:01;;;;;;;3.42;1.80;;;21.10;40.90;;;;;;6249883;28;20021;-68
2023/04/17 15:36:02;;;;;;;2.50;1.63;;;21.30;40.30;;;;;;6250335;28;20096;-68
2023/04/17 15:39:03;;;;;;;2.58;1.73;;;21.30;40.00;;;;;;6249494;28;20616;-69
2023/04/17 15:42:08;;;;;;;9.30;1.92;;;21.20;40.00;;;;;;6249012;28;20033;-68
2023/04/17 15:45:09;;;;;;;4.18;2.10;;;21.00;40.20;;;;;;6250739;28;20365;-70